sensor_id;sensor_type;location;lat;lon;timestamp;P1;durP1;ratioP1;P2;durP2;ratioP2
15454;SDS011;21057;51.024;7.540;2023-02-22T00:01:43;36.90;;;33.40;;
15454;SDS011;21057;51.024;7.540;2023-02-22T00:04:15;57.13;;;36.17;;
15454;SDS011;21057;51.024;7.540;2023-02-22T00:06:45;38.37;;;35.03;;
15454;SDS011;21057;51.024;7.540;2023-02-22T00:09:12;37.57;;;34.87;;
15454;SDS011;21057;51.024;7.540;2023-02-22T00:11:44;64.60;;;36.47;;
15454;SDS011;21057;51.024;7.540;2023-02-22T00:14:13;40.43;;;37.27;;
15454;SDS011;21057;51.024;7.540;2023-02-22T00:16:39;39.73;;;36.03;;
15454;SDS011;21057;51.024;7.540;2023-02-22T00:19:08;37.17;;;34.17;;
15454;SDS011;21057;51.024;7.540;2023-02-22T00:21:34;37.57;;;34.07;;
15454;SDS011;21057;51.024;7.540;2023-02-22T00:24:02;41.57;;;37.07;;
15454;SDS011;21057;51.024;7.540;2023-02-22T00:26:46;40.30;;;36.20;;
15454;SDS011;21057;51.024;7.540;2023-02-22T00:29:14;40.33;;;36.90;;
15454;SDS011;21057;51.024;7.540;2023-02-22T00:31:41;36.37;;;33.83;;
15454;SDS011;21057;51.024;7.540;2023-02-22T00:34:09;39.30;;;36.30;;
15454;SDS011;21057;51.024;7.540;2023-02-22T00:36:36;38.30;;;35.50;;
15454;SDS011;21057;51.024;7.540;2023-02-22T00:39:03;39.37;;;36.80;;
15454;SDS011;21057;51.024;7.540;2023-02-22T00:41:31;39.40;;;35.40;;
15454;SDS011;21057;51.024;7.540;2023-02-22T00:44:04;39.73;;;37.10;;
15454;SDS011;21057;51.024;7.540;2023-02-22T00:46:31;38.83;;;36.23;;
15454;SDS011;21057;51.024;7.540;2023-02-22T00:48:57;38.27;;;35.70;;
15454;SDS011;21057;51.024;7.540;2023-02-22T00:51:26;40.77;;;34.73;;
15454;SDS011;21057;51.024;7.540;2023-02-22T00:53:52;39.53;;;36.10;;
15454;SDS011;21057;51.024;7.540;2023-02-22T00:56:19;39.23;;;36.20;;
15454;SDS011;21057;51.024;7.540;2023-02-22T00:58:46;41.87;;;37.90;;
15454;SDS011;21057;51.024;7.540;2023-02-22T01:01:24;36.87;;;34.07;;
15454;SDS011;21057;51.024;7.540;2023-02-22T01:03:51;38.33;;;35.07;;
15454;SDS011;21057;51.024;7.540;2023-02-22T01:06:18;52.00;;;37.67;;
15454;SDS011;21057;51.024;7.540;2023-02-22T01:09:02;39.43;;;35.30;;
15454;SDS011;21057;51.024;7.540;2023-02-22T01:11:32;44.93;;;35.00;;
15454;SDS011;21057;51.024;7.540;2023-02-22T01:13:59;38.77;;;35.83;;
15454;SDS011;21057;51.024;7.540;2023-02-22T01:16:26;36.47;;;33.67;;
15454;SDS011;21057;51.024;7.540;2023-02-22T01:18:53;37.57;;;34.17;;
15454;SDS011;21057;51.024;7.540;2023-02-22T01:21:19;35.07;;;32.77;;
15454;SDS011;21057;51.024;7.540;2023-02-22T01:23:46;38.63;;;35.90;;
15454;SDS011;21057;51.024;7.540;2023-02-22T01:26:14;37.73;;;35.03;;
15454;SDS011;21057;51.024;7.540;2023-02-22T01:28:41;39.03;;;36.03;;
15454;SDS011;21057;51.024;7.540;2023-02-22T01:31:09;37.60;;;34.60;;
15454;SDS011;21057;51.024;7.540;2023-02-22T01:33:36;36.70;;;33.90;;
15454;SDS011;21057;51.024;7.540;2023-02-22T01:36:06;39.00;;;35.17;;
15454;SDS011;21057;51.024;7.540;2023-02-22T01:38:35;38.77;;;36.00;;
15454;SDS011;21057;51.024;7.540;2023-02-22T01:41:03;40.37;;;36.57;;
15454;SDS011;21057;51.024;7.540;2023-02-22T01:43:32;39.20;;;36.10;;
15454;SDS011;21057;51.024;7.540;2023-02-22T01:46:00;40.37;;;37.07;;
15454;SDS011;21057;51.024;7.540;2023-02-22T01:48:32;39.13;;;36.27;;
15454;SDS011;21057;51.024;7.540;2023-02-22T01:51:05;41.77;;;37.17;;
15454;SDS011;21057;51.024;7.540;2023-02-22T01:53:36;38.57;;;35.47;;
15454;SDS011;21057;51.024;7.540;2023-02-22T01:56:06;38.50;;;35.60;;
15454;SDS011;21057;51.024;7.540;2023-02-22T01:58:36;36.57;;;33.97;;
15454;SDS011;21057;51.024;7.540;2023-02-22T02:01:06;39.67;;;36.60;;
15454;SDS011;21057;51.024;7.540;2023-02-22T02:06:31;38.07;;;35.33;;
15454;SDS011;21057;51.024;7.540;2023-02-22T02:09:01;40.97;;;37.90;;
15454;SDS011;21057;51.024;7.540;2023-02-22T02:11:37;39.57;;;36.87;;
15454;SDS011;21057;51.024;7.540;2023-02-22T02:14:07;41.10;;;38.23;;
15454;SDS011;21057;51.024;7.540;2023-02-22T02:16:36;42.70;;;39.23;;
15454;SDS011;21057;51.024;7.540;2023-02-22T02:19:08;40.13;;;37.20;;
15454;SDS011;21057;51.024;7.540;2023-02-22T02:27:59;40.70;;;37.90;;
15454;SDS011;21057;51.024;7.540;2023-02-22T02:34:07;39.90;;;37.00;;
15454;SDS011;21057;51.024;7.540;2023-02-22T02:36:40;41.37;;;38.30;;
15454;SDS011;21057;51.024;7.540;2023-02-22T02:39:15;40.67;;;37.63;;
15454;SDS011;21057;51.024;7.540;2023-02-22T02:41:49;38.10;;;35.53;;
15454;SDS011;21057;51.024;7.540;2023-02-22T02:44:25;38.23;;;35.63;;
15454;SDS011;21057;51.024;7.540;2023-02-22T02:47:09;38.13;;;35.53;;
15454;SDS011;21057;51.024;7.540;2023-02-22T02:52:32;39.93;;;36.97;;
15454;SDS011;21057;51.024;7.540;2023-02-22T02:55:00;40.60;;;37.50;;
15454;SDS011;21057;51.024;7.540;2023-02-22T02:57:29;38.77;;;36.07;;
15454;SDS011;21057;51.024;7.540;2023-02-22T02:59:58;41.83;;;38.73;;
15454;SDS011;21057;51.024;7.540;2023-02-22T03:02:30;38.97;;;35.83;;
15454;SDS011;21057;51.024;7.540;2023-02-22T03:05:18;39.20;;;36.60;;
15454;SDS011;21057;51.024;7.540;2023-02-22T03:07:57;40.37;;;36.83;;
15454;SDS011;21057;51.024;7.540;2023-02-22T03:10:38;37.37;;;34.83;;
15454;SDS011;21057;51.024;7.540;2023-02-22T03:13:13;40.00;;;37.20;;
15454;SDS011;21057;51.024;7.540;2023-02-22T03:15:48;38.07;;;35.27;;
15454;SDS011;21057;51.024;7.540;2023-02-22T03:18:19;39.93;;;36.73;;
15454;SDS011;21057;51.024;7.540;2023-02-22T03:20:57;38.57;;;35.70;;
15454;SDS011;21057;51.024;7.540;2023-02-22T03:23:27;41.23;;;37.97;;
15454;SDS011;21057;51.024;7.540;2023-02-22T03:25:57;38.57;;;36.03;;
15454;SDS011;21057;51.024;7.540;2023-02-22T03:31:10;41.57;;;38.37;;
15454;SDS011;21057;51.024;7.540;2023-02-22T03:33:39;39.00;;;35.80;;
15454;SDS011;21057;51.024;7.540;2023-02-22T03:36:11;38.27;;;35.60;;
15454;SDS011;21057;51.024;7.540;2023-02-22T03:38:44;38.07;;;35.17;;
15454;SDS011;21057;51.024;7.540;2023-02-22T03:41:12;39.27;;;35.77;;
15454;SDS011;21057;51.024;7.540;2023-02-22T03:46:21;38.67;;;35.57;;
15454;SDS011;21057;51.024;7.540;2023-02-22T03:48:50;42.20;;;38.67;;
15454;SDS011;21057;51.024;7.540;2023-02-22T03:51:23;38.30;;;35.60;;
15454;SDS011;21057;51.024;7.540;2023-02-22T03:53:53;37.63;;;35.00;;
15454;SDS011;21057;51.024;7.540;2023-02-22T03:56:21;39.13;;;36.27;;
15454;SDS011;21057;51.024;7.540;2023-02-22T03:58:51;40.47;;;37.33;;
15454;SDS011;21057;51.024;7.540;2023-02-22T04:01:18;40.10;;;36.67;;
15454;SDS011;21057;51.024;7.540;2023-02-22T04:03:47;41.50;;;38.43;;
15454;SDS011;21057;51.024;7.540;2023-02-22T04:06:14;39.27;;;36.47;;
15454;SDS011;21057;51.024;7.540;2023-02-22T04:08:42;40.33;;;37.33;;
15454;SDS011;21057;51.024;7.540;2023-02-22T04:11:09;40.93;;;38.03;;
15454;SDS011;21057;51.024;7.540;2023-02-22T04:13:36;40.13;;;37.13;;
15454;SDS011;21057;51.024;7.540;2023-02-22T04:16:03;39.63;;;36.90;;
15454;SDS011;21057;51.024;7.540;2023-02-22T04:18:30;41.43;;;38.30;;
15454;SDS011;21057;51.024;7.540;2023-02-22T04:20:57;42.00;;;38.93;;
15454;SDS011;21057;51.024;7.540;2023-02-22T04:23:24;40.67;;;37.87;;
15454;SDS011;21057;51.024;7.540;2023-02-22T04:25:52;40.47;;;37.00;;
15454;SDS011;21057;51.024;7.540;2023-02-22T04:28:20;42.23;;;39.20;;
15454;SDS011;21057;51.024;7.540;2023-02-22T04:30:54;42.97;;;39.73;;
15454;SDS011;21057;51.024;7.540;2023-02-22T04:33:21;40.10;;;37.10;;
15454;SDS011;21057;51.024;7.540;2023-02-22T04:35:48;41.30;;;38.50;;
15454;SDS011;21057;51.024;7.540;2023-02-22T04:38:16;42.67;;;39.43;;
15454;SDS011;21057;51.024;7.540;2023-02-22T04:40:43;42.40;;;39.43;;
15454;SDS011;21057;51.024;7.540;2023-02-22T04:43:12;44.27;;;40.73;;
15454;SDS011;21057;51.024;7.540;2023-02-22T04:45:39;42.83;;;39.53;;
15454;SDS011;21057;51.024;7.540;2023-02-22T04:48:06;44.50;;;40.87;;
15454;SDS011;21057;51.024;7.540;2023-02-22T04:50:32;42.60;;;39.40;;
15454;SDS011;21057;51.024;7.540;2023-02-22T04:52:59;43.33;;;40.33;;
15454;SDS011;21057;51.024;7.540;2023-02-22T04:55:26;44.63;;;41.77;;
15454;SDS011;21057;51.024;7.540;2023-02-22T04:57:53;40.40;;;37.60;;
15454;SDS011;21057;51.024;7.540;2023-02-22T05:00:22;43.33;;;39.90;;
15454;SDS011;21057;51.024;7.540;2023-02-22T05:02:49;40.43;;;37.73;;
15454;SDS011;21057;51.024;7.540;2023-02-22T05:05:16;42.93;;;39.73;;
15454;SDS011;21057;51.024;7.540;2023-02-22T05:07:45;43.30;;;39.87;;
15454;SDS011;21057;51.024;7.540;2023-02-22T05:10:12;44.67;;;41.33;;
15454;SDS011;21057;51.024;7.540;2023-02-22T05:12:41;42.47;;;39.57;;
15454;SDS011;21057;51.024;7.540;2023-02-22T05:15:08;43.43;;;40.50;;
15454;SDS011;21057;51.024;7.540;2023-02-22T05:17:37;43.37;;;40.50;;
15454;SDS011;21057;51.024;7.540;2023-02-22T05:20:04;45.20;;;42.00;;
15454;SDS011;21057;51.024;7.540;2023-02-22T05:22:32;43.83;;;40.93;;
15454;SDS011;21057;51.024;7.540;2023-02-22T05:25:00;46.70;;;43.03;;
15454;SDS011;21057;51.024;7.540;2023-02-22T05:27:27;45.50;;;42.30;;
15454;SDS011;21057;51.024;7.540;2023-02-22T05:29:54;44.93;;;41.30;;
15454;SDS011;21057;51.024;7.540;2023-02-22T05:32:20;44.17;;;41.23;;
15454;SDS011;21057;51.024;7.540;2023-02-22T05:34:49;44.03;;;40.67;;
15454;SDS011;21057;51.024;7.540;2023-02-22T05:37:15;47.47;;;43.93;;
15454;SDS011;21057;51.024;7.540;2023-02-22T05:39:43;47.43;;;44.27;;
15454;SDS011;21057;51.024;7.540;2023-02-22T05:42:10;44.57;;;41.00;;
15454;SDS011;21057;51.024;7.540;2023-02-22T05:44:37;42.50;;;39.57;;
15454;SDS011;21057;51.024;7.540;2023-02-22T05:47:06;44.87;;;41.40;;
15454;SDS011;21057;51.024;7.540;2023-02-22T05:49:33;42.50;;;39.70;;
15454;SDS011;21057;51.024;7.540;2023-02-22T05:52:01;46.63;;;43.13;;
15454;SDS011;21057;51.024;7.540;2023-02-22T05:54:28;46.00;;;42.43;;
15454;SDS011;21057;51.024;7.540;2023-02-22T05:56:55;46.50;;;42.83;;
15454;SDS011;21057;51.024;7.540;2023-02-22T05:59:22;49.03;;;44.43;;
15454;SDS011;21057;51.024;7.540;2023-02-22T06:01:49;45.47;;;42.23;;
15454;SDS011;21057;51.024;7.540;2023-02-22T06:04:18;46.60;;;42.17;;
15454;SDS011;21057;51.024;7.540;2023-02-22T06:06:44;46.43;;;42.93;;
15454;SDS011;21057;51.024;7.540;2023-02-22T06:09:12;44.57;;;41.33;;
15454;SDS011;21057;51.024;7.540;2023-02-22T06:11:39;47.17;;;43.47;;
15454;SDS011;21057;51.024;7.540;2023-02-22T06:14:06;45.13;;;41.67;;
15454;SDS011;21057;51.024;7.540;2023-02-22T06:16:33;43.17;;;39.87;;
15454;SDS011;21057;51.024;7.540;2023-02-22T06:19:00;44.80;;;41.03;;
15454;SDS011;21057;51.024;7.540;2023-02-22T06:21:28;43.50;;;40.40;;
15454;SDS011;21057;51.024;7.540;2023-02-22T06:23:54;47.43;;;43.77;;
15454;SDS011;21057;51.024;7.540;2023-02-22T06:26:22;48.77;;;45.00;;
15454;SDS011;21057;51.024;7.540;2023-02-22T06:28:54;46.60;;;42.90;;
15454;SDS011;21057;51.024;7.540;2023-02-22T06:31:21;50.70;;;46.50;;
15454;SDS011;21057;51.024;7.540;2023-02-22T06:33:48;51.23;;;47.13;;
15454;SDS011;21057;51.024;7.540;2023-02-22T06:36:15;47.90;;;44.07;;
15454;SDS011;21057;51.024;7.540;2023-02-22T06:38:42;48.90;;;44.47;;
15454;SDS011;21057;51.024;7.540;2023-02-22T06:41:08;50.83;;;46.37;;
15454;SDS011;21057;51.024;7.540;2023-02-22T06:43:37;46.70;;;42.63;;
15454;SDS011;21057;51.024;7.540;2023-02-22T06:46:03;43.07;;;39.50;;
15454;SDS011;21057;51.024;7.540;2023-02-22T06:48:43;46.17;;;42.60;;
15454;SDS011;21057;51.024;7.540;2023-02-22T06:51:10;44.97;;;41.17;;
15454;SDS011;21057;51.024;7.540;2023-02-22T06:53:37;45.17;;;41.73;;
15454;SDS011;21057;51.024;7.540;2023-02-22T06:56:04;45.33;;;41.00;;
15454;SDS011;21057;51.024;7.540;2023-02-22T06:58:31;43.60;;;39.63;;
15454;SDS011;21057;51.024;7.540;2023-02-22T07:00:59;45.03;;;41.23;;
15454;SDS011;21057;51.024;7.540;2023-02-22T07:03:27;46.03;;;42.30;;
15454;SDS011;21057;51.024;7.540;2023-02-22T07:05:58;47.20;;;43.13;;
15454;SDS011;21057;51.024;7.540;2023-02-22T07:08:28;48.23;;;43.27;;
15454;SDS011;21057;51.024;7.540;2023-02-22T07:10:55;49.03;;;43.37;;
15454;SDS011;21057;51.024;7.540;2023-02-22T07:13:32;51.37;;;41.73;;
15454;SDS011;21057;51.024;7.540;2023-02-22T07:16:01;47.37;;;42.80;;
15454;SDS011;21057;51.024;7.540;2023-02-22T07:18:28;48.20;;;43.53;;
15454;SDS011;21057;51.024;7.540;2023-02-22T07:21:03;48.80;;;43.83;;
15454;SDS011;21057;51.024;7.540;2023-02-22T07:23:32;49.70;;;45.03;;
15454;SDS011;21057;51.024;7.540;2023-02-22T07:26:01;47.73;;;41.93;;
15454;SDS011;21057;51.024;7.540;2023-02-22T07:28:29;47.67;;;43.57;;
15454;SDS011;21057;51.024;7.540;2023-02-22T07:30:56;47.77;;;43.00;;
15454;SDS011;21057;51.024;7.540;2023-02-22T07:33:24;47.30;;;42.83;;
15454;SDS011;21057;51.024;7.540;2023-02-22T07:35:57;45.93;;;41.10;;
15454;SDS011;21057;51.024;7.540;2023-02-22T07:38:28;48.20;;;41.73;;
15454;SDS011;21057;51.024;7.540;2023-02-22T07:41:04;44.53;;;40.43;;
15454;SDS011;21057;51.024;7.540;2023-02-22T07:43:32;46.27;;;41.97;;
15454;SDS011;21057;51.024;7.540;2023-02-22T07:46:00;45.83;;;41.53;;
15454;SDS011;21057;51.024;7.540;2023-02-22T07:48:29;46.33;;;42.23;;
15454;SDS011;21057;51.024;7.540;2023-02-22T07:51:05;46.93;;;42.00;;
15454;SDS011;21057;51.024;7.540;2023-02-22T07:53:33;46.60;;;41.63;;
15454;SDS011;21057;51.024;7.540;2023-02-22T07:56:01;48.17;;;43.43;;
15454;SDS011;21057;51.024;7.540;2023-02-22T07:58:32;49.23;;;44.40;;
15454;SDS011;21057;51.024;7.540;2023-02-22T08:01:01;48.00;;;43.97;;
15454;SDS011;21057;51.024;7.540;2023-02-22T08:03:29;45.97;;;41.03;;
15454;SDS011;21057;51.024;7.540;2023-02-22T08:06:00;47.17;;;42.53;;
15454;SDS011;21057;51.024;7.540;2023-02-22T08:08:28;49.47;;;44.87;;
15454;SDS011;21057;51.024;7.540;2023-02-22T08:10:57;50.33;;;45.13;;
15454;SDS011;21057;51.024;7.540;2023-02-22T08:13:24;47.43;;;42.43;;
15454;SDS011;21057;51.024;7.540;2023-02-22T08:15:51;65.13;;;45.77;;
15454;SDS011;21057;51.024;7.540;2023-02-22T08:20:57;49.63;;;44.63;;
15454;SDS011;21057;51.024;7.540;2023-02-22T08:23:24;51.03;;;45.57;;
15454;SDS011;21057;51.024;7.540;2023-02-22T08:26:02;50.43;;;45.47;;
15454;SDS011;21057;51.024;7.540;2023-02-22T08:28:30;48.97;;;44.67;;
15454;SDS011;21057;51.024;7.540;2023-02-22T08:30:57;48.30;;;43.47;;
15454;SDS011;21057;51.024;7.540;2023-02-22T08:33:24;51.00;;;46.03;;
15454;SDS011;21057;51.024;7.540;2023-02-22T08:35:59;51.17;;;46.27;;
15454;SDS011;21057;51.024;7.540;2023-02-22T08:38:27;53.50;;;48.07;;
15454;SDS011;21057;51.024;7.540;2023-02-22T08:40:56;51.23;;;46.27;;
15454;SDS011;21057;51.024;7.540;2023-02-22T08:43:23;50.83;;;46.23;;
15454;SDS011;21057;51.024;7.540;2023-02-22T08:46:01;50.97;;;45.87;;
15454;SDS011;21057;51.024;7.540;2023-02-22T08:48:28;51.07;;;46.23;;
15454;SDS011;21057;51.024;7.540;2023-02-22T08:50:55;50.30;;;45.60;;
15454;SDS011;21057;51.024;7.540;2023-02-22T08:53:32;52.27;;;47.13;;
15454;SDS011;21057;51.024;7.540;2023-02-22T08:56:00;92.87;;;58.33;;
15454;SDS011;21057;51.024;7.540;2023-02-22T09:01:03;89.07;;;67.10;;
15454;SDS011;21057;51.024;7.540;2023-02-22T09:03:30;65.50;;;58.07;;
15454;SDS011;21057;51.024;7.540;2023-02-22T09:05:57;65.43;;;55.67;;
15454;SDS011;21057;51.024;7.540;2023-02-22T09:08:24;70.33;;;56.33;;
15454;SDS011;21057;51.024;7.540;2023-02-22T09:10:52;59.83;;;53.53;;
15454;SDS011;21057;51.024;7.540;2023-02-22T09:13:19;63.03;;;56.17;;
15454;SDS011;21057;51.024;7.540;2023-02-22T09:15:46;64.53;;;55.90;;
15454;SDS011;21057;51.024;7.540;2023-02-22T09:18:13;62.00;;;55.43;;
15454;SDS011;21057;51.024;7.540;2023-02-22T09:20:49;63.60;;;56.80;;
15454;SDS011;21057;51.024;7.540;2023-02-22T09:23:15;56.17;;;49.90;;
15454;SDS011;21057;51.024;7.540;2023-02-22T09:25:45;56.63;;;50.60;;
15454;SDS011;21057;51.024;7.540;2023-02-22T09:28:26;53.93;;;49.10;;
15454;SDS011;21057;51.024;7.540;2023-02-22T09:30:53;52.47;;;47.63;;
15454;SDS011;21057;51.024;7.540;2023-02-22T09:33:21;52.73;;;47.83;;
15454;SDS011;21057;51.024;7.540;2023-02-22T09:35:50;52.97;;;48.17;;
15454;SDS011;21057;51.024;7.540;2023-02-22T09:38:17;53.47;;;47.93;;
15454;SDS011;21057;51.024;7.540;2023-02-22T09:40:47;54.03;;;48.87;;
15454;SDS011;21057;51.024;7.540;2023-02-22T09:43:20;53.67;;;48.53;;
15454;SDS011;21057;51.024;7.540;2023-02-22T09:46:00;51.77;;;46.67;;
15454;SDS011;21057;51.024;7.540;2023-02-22T09:48:36;52.70;;;47.77;;
15454;SDS011;21057;51.024;7.540;2023-02-22T09:51:10;82.77;;;60.77;;
15454;SDS011;21057;51.024;7.540;2023-02-22T09:53:43;60.80;;;54.43;;
15454;SDS011;21057;51.024;7.540;2023-02-22T09:56:14;56.60;;;50.70;;
15454;SDS011;21057;51.024;7.540;2023-02-22T09:58:43;58.00;;;51.90;;
15454;SDS011;21057;51.024;7.540;2023-02-22T10:01:22;55.57;;;49.87;;
15454;SDS011;21057;51.024;7.540;2023-02-22T10:03:54;50.43;;;45.50;;
15454;SDS011;21057;51.024;7.540;2023-02-22T10:06:26;46.97;;;42.67;;
15454;SDS011;21057;51.024;7.540;2023-02-22T10:09:02;50.97;;;45.97;;
15454;SDS011;21057;51.024;7.540;2023-02-22T10:14:31;48.07;;;43.20;;
15454;SDS011;21057;51.024;7.540;2023-02-22T10:17:11;47.20;;;42.37;;
15454;SDS011;21057;51.024;7.540;2023-02-22T10:19:47;46.63;;;41.83;;
15454;SDS011;21057;51.024;7.540;2023-02-22T10:22:34;43.07;;;37.83;;
15454;SDS011;21057;51.024;7.540;2023-02-22T10:25:10;38.53;;;34.67;;
15454;SDS011;21057;51.024;7.540;2023-02-22T10:27:44;37.13;;;33.43;;
15454;SDS011;21057;51.024;7.540;2023-02-22T10:30:15;37.80;;;34.00;;
15454;SDS011;21057;51.024;7.540;2023-02-22T10:32:48;38.63;;;34.33;;
15454;SDS011;21057;51.024;7.540;2023-02-22T10:35:21;34.37;;;31.03;;
15454;SDS011;21057;51.024;7.540;2023-02-22T10:37:50;34.93;;;30.93;;
15454;SDS011;21057;51.024;7.540;2023-02-22T10:40:28;35.67;;;31.87;;
15454;SDS011;21057;51.024;7.540;2023-02-22T10:43:04;36.47;;;32.70;;
15454;SDS011;21057;51.024;7.540;2023-02-22T10:45:34;34.20;;;30.93;;
15454;SDS011;21057;51.024;7.540;2023-02-22T10:48:06;35.20;;;31.63;;
15454;SDS011;21057;51.024;7.540;2023-02-22T10:50:37;34.63;;;31.27;;
15454;SDS011;21057;51.024;7.540;2023-02-22T10:58:42;31.50;;;28.90;;
15454;SDS011;21057;51.024;7.540;2023-02-22T11:01:20;29.77;;;27.13;;
15454;SDS011;21057;51.024;7.540;2023-02-22T11:04:00;29.33;;;26.77;;
15454;SDS011;21057;51.024;7.540;2023-02-22T11:06:30;28.53;;;25.93;;
15454;SDS011;21057;51.024;7.540;2023-02-22T11:09:11;27.23;;;24.77;;
15454;SDS011;21057;51.024;7.540;2023-02-22T11:11:44;25.73;;;23.53;;
15454;SDS011;21057;51.024;7.540;2023-02-22T11:14:13;25.50;;;23.23;;
15454;SDS011;21057;51.024;7.540;2023-02-22T11:16:51;25.70;;;23.40;;
15454;SDS011;21057;51.024;7.540;2023-02-22T11:19:22;24.50;;;22.50;;
15454;SDS011;21057;51.024;7.540;2023-02-22T11:21:51;26.15;;;24.02;;
15454;SDS011;21057;51.024;7.540;2023-02-22T11:24:21;25.50;;;23.10;;
15454;SDS011;21057;51.024;7.540;2023-02-22T11:26:59;25.17;;;23.37;;
15454;SDS011;21057;51.024;7.540;2023-02-22T11:29:32;25.25;;;23.45;;
15454;SDS011;21057;51.024;7.540;2023-02-22T11:32:01;25.30;;;23.33;;
15454;SDS011;21057;51.024;7.540;2023-02-22T11:34:39;24.33;;;21.92;;
15454;SDS011;21057;51.024;7.540;2023-02-22T11:40:03;23.63;;;21.77;;
15454;SDS011;21057;51.024;7.540;2023-02-22T11:42:37;23.90;;;21.75;;
15454;SDS011;21057;51.024;7.540;2023-02-22T11:45:07;24.10;;;22.20;;
15454;SDS011;21057;51.024;7.540;2023-02-22T11:47:44;22.98;;;21.15;;
15454;SDS011;21057;51.024;7.540;2023-02-22T11:50:22;24.25;;;22.40;;
15454;SDS011;21057;51.024;7.540;2023-02-22T11:52:59;24.60;;;22.80;;
15454;SDS011;21057;51.024;7.540;2023-02-22T11:55:42;23.87;;;22.13;;
15454;SDS011;21057;51.024;7.540;2023-02-22T11:58:24;24.07;;;22.37;;
15454;SDS011;21057;51.024;7.540;2023-02-22T12:01:06;24.80;;;22.83;;
15454;SDS011;21057;51.024;7.540;2023-02-22T12:06:55;25.60;;;23.60;;
15454;SDS011;21057;51.024;7.540;2023-02-22T12:09:50;24.03;;;22.30;;
15454;SDS011;21057;51.024;7.540;2023-02-22T12:12:24;24.33;;;22.20;;
15454;SDS011;21057;51.024;7.540;2023-02-22T12:15:02;23.63;;;21.80;;
15454;SDS011;21057;51.024;7.540;2023-02-22T12:17:45;23.57;;;21.70;;
15454;SDS011;21057;51.024;7.540;2023-02-22T12:20:21;23.43;;;21.73;;
15454;SDS011;21057;51.024;7.540;2023-02-22T12:22:59;24.77;;;22.87;;
15454;SDS011;21057;51.024;7.540;2023-02-22T12:25:31;25.53;;;23.57;;
15454;SDS011;21057;51.024;7.540;2023-02-22T12:28:09;24.17;;;22.57;;
15454;SDS011;21057;51.024;7.540;2023-02-22T12:30:42;24.50;;;22.77;;
15454;SDS011;21057;51.024;7.540;2023-02-22T12:33:13;23.67;;;22.17;;
15454;SDS011;21057;51.024;7.540;2023-02-22T12:35:48;23.93;;;22.13;;
15454;SDS011;21057;51.024;7.540;2023-02-22T12:38:21;23.73;;;21.93;;
15454;SDS011;21057;51.024;7.540;2023-02-22T12:40:55;23.87;;;22.17;;
15454;SDS011;21057;51.024;7.540;2023-02-22T12:43:28;23.37;;;21.60;;
15454;SDS011;21057;51.024;7.540;2023-02-22T12:46:01;24.47;;;22.60;;
15454;SDS011;21057;51.024;7.540;2023-02-22T12:48:45;22.97;;;21.20;;
15454;SDS011;21057;51.024;7.540;2023-02-22T12:51:20;23.43;;;21.83;;
15454;SDS011;21057;51.024;7.540;2023-02-22T12:53:57;25.23;;;23.33;;
15454;SDS011;21057;51.024;7.540;2023-02-22T12:56:33;26.00;;;24.23;;
15454;SDS011;21057;51.024;7.540;2023-02-22T12:59:08;23.73;;;22.13;;
15454;SDS011;21057;51.024;7.540;2023-02-22T13:01:42;24.23;;;22.47;;
15454;SDS011;21057;51.024;7.540;2023-02-22T13:04:12;24.50;;;22.70;;
15454;SDS011;21057;51.024;7.540;2023-02-22T13:06:47;25.57;;;23.50;;
15454;SDS011;21057;51.024;7.540;2023-02-22T13:09:39;24.80;;;22.80;;
15454;SDS011;21057;51.024;7.540;2023-02-22T13:12:30;24.47;;;22.67;;
15454;SDS011;21057;51.024;7.540;2023-02-22T13:15:11;23.73;;;22.13;;
15454;SDS011;21057;51.024;7.540;2023-02-22T13:17:53;23.27;;;21.67;;
15454;SDS011;21057;51.024;7.540;2023-02-22T13:20:29;23.37;;;21.67;;
15454;SDS011;21057;51.024;7.540;2023-02-22T13:23:02;25.17;;;23.03;;
15454;SDS011;21057;51.024;7.540;2023-02-22T13:25:39;23.57;;;21.97;;
15454;SDS011;21057;51.024;7.540;2023-02-22T13:28:16;23.13;;;21.27;;
15454;SDS011;21057;51.024;7.540;2023-02-22T13:30:49;22.60;;;20.90;;
15454;SDS011;21057;51.024;7.540;2023-02-22T13:33:42;23.63;;;21.60;;
15454;SDS011;21057;51.024;7.540;2023-02-22T13:36:35;22.90;;;21.27;;
15454;SDS011;21057;51.024;7.540;2023-02-22T13:39:23;23.00;;;21.23;;
15454;SDS011;21057;51.024;7.540;2023-02-22T13:48:12;23.10;;;21.50;;
15454;SDS011;21057;51.024;7.540;2023-02-22T13:51:08;24.20;;;22.57;;
15454;SDS011;21057;51.024;7.540;2023-02-22T13:53:46;23.50;;;21.80;;
15454;SDS011;21057;51.024;7.540;2023-02-22T13:56:20;24.60;;;22.70;;
15454;SDS011;21057;51.024;7.540;2023-02-22T13:58:52;24.43;;;22.63;;
15454;SDS011;21057;51.024;7.540;2023-02-22T14:01:39;23.67;;;21.87;;
15454;SDS011;21057;51.024;7.540;2023-02-22T14:04:19;23.43;;;21.63;;
15454;SDS011;21057;51.024;7.540;2023-02-22T14:10:03;23.73;;;21.70;;
15454;SDS011;21057;51.024;7.540;2023-02-22T14:15:15;22.87;;;21.37;;
15454;SDS011;21057;51.024;7.540;2023-02-22T14:17:46;23.80;;;22.00;;
15454;SDS011;21057;51.024;7.540;2023-02-22T14:20:19;22.93;;;21.17;;
15454;SDS011;21057;51.024;7.540;2023-02-22T14:26:11;22.87;;;21.17;;
15454;SDS011;21057;51.024;7.540;2023-02-22T14:28:42;23.03;;;21.43;;
15454;SDS011;21057;51.024;7.540;2023-02-22T14:31:18;23.20;;;21.60;;
15454;SDS011;21057;51.024;7.540;2023-02-22T14:33:55;23.97;;;22.27;;
15454;SDS011;21057;51.024;7.540;2023-02-22T14:36:25;23.90;;;22.20;;
15454;SDS011;21057;51.024;7.540;2023-02-22T14:38:55;24.03;;;22.43;;
15454;SDS011;21057;51.024;7.540;2023-02-22T14:41:30;22.63;;;20.77;;
15454;SDS011;21057;51.024;7.540;2023-02-22T14:43:58;22.00;;;20.40;;
15454;SDS011;21057;51.024;7.540;2023-02-22T14:46:39;23.60;;;21.70;;
15454;SDS011;21057;51.024;7.540;2023-02-22T14:49:08;24.07;;;21.97;;
15454;SDS011;21057;51.024;7.540;2023-02-22T14:51:48;23.23;;;21.43;;
15454;SDS011;21057;51.024;7.540;2023-02-22T14:54:22;23.57;;;21.70;;
15454;SDS011;21057;51.024;7.540;2023-02-22T14:56:54;24.83;;;22.80;;
15454;SDS011;21057;51.024;7.540;2023-02-22T14:59:43;24.47;;;22.60;;
15454;SDS011;21057;51.024;7.540;2023-02-22T15:02:19;24.60;;;22.90;;
15454;SDS011;21057;51.024;7.540;2023-02-22T15:04:50;24.63;;;22.87;;
15454;SDS011;21057;51.024;7.540;2023-02-22T15:07:23;25.43;;;23.57;;
15454;SDS011;21057;51.024;7.540;2023-02-22T15:10:04;25.40;;;23.27;;
15454;SDS011;21057;51.024;7.540;2023-02-22T15:12:32;25.60;;;23.33;;
15454;SDS011;21057;51.024;7.540;2023-02-22T15:15:09;25.30;;;23.40;;
15454;SDS011;21057;51.024;7.540;2023-02-22T15:17:39;25.73;;;23.63;;
15454;SDS011;21057;51.024;7.540;2023-02-22T15:20:11;24.50;;;22.80;;
15454;SDS011;21057;51.024;7.540;2023-02-22T15:25:24;25.13;;;23.23;;
15454;SDS011;21057;51.024;7.540;2023-02-22T15:27:55;24.97;;;23.07;;
15454;SDS011;21057;51.024;7.540;2023-02-22T15:30:27;25.87;;;23.70;;
15454;SDS011;21057;51.024;7.540;2023-02-22T15:33:08;24.87;;;22.70;;
15454;SDS011;21057;51.024;7.540;2023-02-22T15:35:36;25.77;;;23.43;;
15454;SDS011;21057;51.024;7.540;2023-02-22T15:38:04;25.70;;;23.73;;
15454;SDS011;21057;51.024;7.540;2023-02-22T15:40:32;26.40;;;24.07;;
15454;SDS011;21057;51.024;7.540;2023-02-22T15:43:00;24.77;;;22.97;;
15454;SDS011;21057;51.024;7.540;2023-02-22T15:45:29;23.73;;;22.03;;